createdAt,value
2022-10-23T00:01:42.653Z,98627.09
2022-10-23T00:04:13.635Z,98627.56
2022-10-23T00:06:40.839Z,98612.63
2022-10-23T00:09:08.560Z,98619.50
2022-10-23T00:11:35.611Z,98614.94
2022-10-23T00:14:05.544Z,98608.75
2022-10-23T00:16:32.236Z,98606.59
2022-10-23T00:18:58.653Z,98606.59
2022-10-23T00:21:25.586Z,98599.84
2022-10-23T00:23:52.368Z,98598.38
2022-10-23T00:26:19.143Z,98590.69
2022-10-23T00:28:48.689Z,98589.66
2022-10-23T00:31:15.921Z,98584.66
2022-10-23T00:33:44.222Z,98594.28
2022-10-23T00:36:13.565Z,98585.78
2022-10-23T00:38:42.943Z,98598.97
2022-10-23T00:41:15.549Z,98594.88
2022-10-23T00:43:58.088Z,98596.69
2022-10-23T00:46:24.756Z,98593.28
2022-10-23T00:48:51.671Z,98596.53
2022-10-23T00:51:18.602Z,98596.53
2022-10-23T00:53:52.824Z,98589.13
2022-10-23T00:56:25.460Z,98586.72
2022-10-23T00:58:51.973Z,98587.09
2022-10-23T01:01:21.547Z,98582.25
2022-10-23T01:03:49.365Z,98578.13
2022-10-23T01:06:31.772Z,98580.31
2022-10-23T01:09:22.457Z,98580.94
2022-10-23T01:11:56.401Z,98584.13
2022-10-23T01:14:37.299Z,98576.72
2022-10-23T01:17:14.357Z,98573.09
2022-10-23T01:19:50.887Z,98574.88
2022-10-23T01:22:35.631Z,98576.16
2022-10-23T01:25:20.925Z,98570.78
2022-10-23T01:27:53.795Z,98571.16
2022-10-23T01:30:20.558Z,98565.16
2022-10-23T01:32:52.757Z,98564.50
2022-10-23T01:35:28.600Z,98563.00
2022-10-23T01:38:11.815Z,98558.50
2022-10-23T01:40:47.293Z,98555.22
2022-10-23T01:43:20.039Z,98562.72
2022-10-23T01:45:52.591Z,98554.56
2022-10-23T01:48:25.955Z,98546.50
2022-10-23T01:50:55.586Z,98543.38
2022-10-23T01:53:24.078Z,98543.28
2022-10-23T01:55:51.748Z,98537.47
2022-10-23T01:58:24.365Z,98540.06
2022-10-23T02:00:52.814Z,98539.41
2022-10-23T02:03:20.828Z,98530.88
2022-10-23T02:05:47.475Z,98532.38
2022-10-23T02:08:13.983Z,98533.66
2022-10-23T02:11:00.441Z,98531.34
2022-10-23T02:13:39.387Z,98530.13
2022-10-23T02:16:21.566Z,98541.16
2022-10-23T02:19:14.008Z,98531.78
2022-10-23T02:21:49.189Z,98529.69
2022-10-23T02:24:20.277Z,98525.34
2022-10-23T02:26:53.942Z,98523.84
2022-10-23T02:29:31.071Z,98518.94
2022-10-23T02:31:58.795Z,98528.66
2022-10-23T02:34:25.308Z,98518.47
2022-10-23T02:36:51.872Z,98512.28
2022-10-23T02:39:24.246Z,98517.66
2022-10-23T02:41:59.443Z,98513.69
2022-10-23T02:44:55.299Z,98505.91
2022-10-23T02:47:53.804Z,98508.78
2022-10-23T02:50:35.904Z,98497.41
2022-10-23T02:53:20.445Z,98491.38
2022-10-23T02:56:05.397Z,98488.41
2022-10-23T02:58:43.329Z,98496.56
2022-10-23T03:01:17.280Z,98481.66
2022-10-23T03:04:11.272Z,98485.84
2022-10-23T03:06:37.948Z,98483.53
2022-10-23T03:09:06.372Z,98477.88
2022-10-23T03:11:33.029Z,98482.31
2022-10-23T03:13:59.472Z,98478.25
2022-10-23T03:16:25.891Z,98468.25
2022-10-23T03:18:54.616Z,98469.66
2022-10-23T03:21:21.412Z,98467.34
2022-10-23T03:23:51.814Z,98470.38
2022-10-23T03:26:23.832Z,98469.72
2022-10-23T03:28:50.268Z,98481.47
2022-10-23T03:31:19.320Z,98472.59
2022-10-23T03:33:46.953Z,98476.81
2022-10-23T03:36:13.399Z,98480.16
2022-10-23T03:38:40.189Z,98473.50
2022-10-23T03:41:06.725Z,98470.00
2022-10-23T03:43:33.132Z,98465.44
2022-10-23T03:46:01.008Z,98465.06
2022-10-23T03:48:27.493Z,98475.91
2022-10-23T03:50:57.809Z,98473.22
2022-10-23T03:53:24.208Z,98467.13
2022-10-23T03:55:50.620Z,98459.44
2022-10-23T03:58:17.403Z,98458.50
2022-10-23T04:00:44.106Z,98458.50
2022-10-23T04:03:10.574Z,98460.16
2022-10-23T04:05:37.719Z,98464.88
2022-10-23T04:08:04.304Z,98462.03
2022-10-23T04:10:32.735Z,98464.22
2022-10-23T04:12:59.167Z,98465.63
2022-10-23T04:15:27.192Z,98451.84
2022-10-23T04:17:54.290Z,98454.53
2022-10-23T04:20:20.869Z,98453.06
2022-10-23T04:22:47.188Z,98453.22
2022-10-23T04:25:13.641Z,98446.56
2022-10-23T04:27:40.183Z,98443.22
2022-10-23T04:30:07.436Z,98444.53
2022-10-23T04:32:33.964Z,98443.22
2022-10-23T04:35:00.653Z,98443.34
2022-10-23T04:37:29.892Z,98441.09
2022-10-23T04:39:56.591Z,98444.63
2022-10-23T04:42:23.133Z,98452.69
2022-10-23T04:44:49.494Z,98455.44
2022-10-23T04:47:17.266Z,98444.06
2022-10-23T04:49:54.077Z,98449.28
2022-10-23T04:52:35.074Z,98440.28
2022-10-23T04:55:20.917Z,98439.44
2022-10-23T04:58:05.202Z,98435.66
2022-10-23T05:00:32.225Z,98433.16
2022-10-23T05:02:58.626Z,98432.13
2022-10-23T05:05:31.355Z,98435.66
2022-10-23T05:08:18.085Z,98417.25
2022-10-23T05:11:03.280Z,98417.72
2022-10-23T05:13:34.153Z,98423.19
2022-10-23T05:16:00.849Z,98422.34
2022-10-23T05:18:47.418Z,98417.44
2022-10-23T05:21:20.686Z,98419.56
2022-10-23T05:23:50.556Z,98416.16
2022-10-23T05:26:17.375Z,98409.41
2022-10-23T05:28:46.515Z,98415.94
2022-10-23T05:31:16.260Z,98412.81
2022-10-23T05:33:48.102Z,98421.88
2022-10-23T05:36:15.554Z,98423.56
2022-10-23T05:38:43.799Z,98412.34
2022-10-23T05:41:14.171Z,98412.34
2022-10-23T05:43:40.660Z,98431.47
2022-10-23T05:46:29.988Z,98442.88
2022-10-23T05:49:28.539Z,98404.56
2022-10-23T05:52:30.613Z,98402.66
2022-10-23T05:55:16.347Z,98442.41
2022-10-23T05:57:50.731Z,98424.56
2022-10-23T06:00:23.784Z,98408.19
2022-10-23T06:03:03.308Z,98420.97
2022-10-23T06:05:37.059Z,98435.84
2022-10-23T06:08:21.493Z,98425.84
2022-10-23T06:10:50.415Z,98421.31
2022-10-23T06:13:17.879Z,98415.47
2022-10-23T06:15:45.635Z,98423.53
2022-10-23T06:18:19.194Z,98432.06
2022-10-23T06:20:53.375Z,98430.56
2022-10-23T06:23:25.558Z,98396.16
2022-10-23T06:26:12.820Z,98403.94
2022-10-23T06:28:55.958Z,98412.63
2022-10-23T06:31:26.806Z,98416.16
2022-10-23T06:33:59.074Z,98418.63
2022-10-23T06:36:27.257Z,98412.44
2022-10-23T06:41:49.882Z,98423.53
2022-10-23T06:44:36.285Z,98430.78
2022-10-23T06:47:11.124Z,98426.13
2022-10-23T06:49:56.352Z,98424.59
2022-10-23T06:52:42.045Z,98429.13
2022-10-23T06:55:10.120Z,98422.94
2022-10-23T06:57:37.827Z,98424.41
2022-10-23T07:00:05.763Z,98437.38
2022-10-23T07:02:41.510Z,98435.66
2022-10-23T07:05:11.317Z,98431.44
2022-10-23T07:07:40.145Z,98431.53
2022-10-23T07:10:06.965Z,98420.41
2022-10-23T07:12:45.334Z,98415.06
2022-10-23T07:15:44.574Z,98425.78
2022-10-23T07:18:16.869Z,98420.69
2022-10-23T07:21:03.770Z,98399.00
2022-10-23T07:23:31.544Z,98406.66
2022-10-23T07:26:15.392Z,98414.16
2022-10-23T07:28:43.718Z,98407.94
2022-10-23T07:31:11.924Z,98404.31
2022-10-23T07:34:07.140Z,98407.31
2022-10-23T07:36:34.464Z,98416.88
2022-10-23T07:39:00.900Z,98420.63
2022-10-23T07:41:27.582Z,98401.00
2022-10-23T07:43:53.997Z,98409.06
2022-10-23T07:46:20.508Z,98415.13
2022-10-23T07:48:47.656Z,98399.13
2022-10-23T07:51:16.439Z,98398.19
2022-10-23T07:53:49.742Z,98404.97
2022-10-23T07:56:51.239Z,98400.72
2022-10-23T07:59:23.653Z,98393.28
2022-10-23T08:01:56.460Z,98394.56
2022-10-23T08:04:28.560Z,98381.75
2022-10-23T08:07:02.160Z,98386.50
2022-10-23T08:09:35.158Z,98390.44
2022-10-23T08:12:03.746Z,98386.41
2022-10-23T08:14:30.521Z,98384.28
2022-10-23T08:16:57.351Z,98390.31
2022-10-23T08:19:46.307Z,98390.22
2022-10-23T08:22:13.389Z,98389.19
2022-10-23T08:24:40.546Z,98375.94
2022-10-23T08:27:07.350Z,98375.19
2022-10-23T08:29:40.965Z,98374.69
2022-10-23T08:32:07.568Z,98376.53
2022-10-23T08:34:53.057Z,98378.38
2022-10-23T08:37:22.798Z,98359.72
2022-10-23T08:39:51.393Z,98358.00
2022-10-23T08:42:26.985Z,98351.63
2022-10-23T08:45:04.869Z,98348.56
2022-10-23T08:47:53.537Z,98331.53
2022-10-23T08:50:55.309Z,98336.88
2022-10-23T08:53:36.303Z,98335.41
2022-10-23T08:56:08.357Z,98327.91
2022-10-23T09:01:40.619Z,98328.25
2022-10-23T09:04:09.982Z,98330.41
2022-10-23T09:06:45.226Z,98326.41
2022-10-23T09:09:35.756Z,98327.56
2022-10-23T09:12:11.533Z,98332.03
2022-10-23T09:15:07.887Z,98327.69
2022-10-23T09:17:41.062Z,98318.25
2022-10-23T09:20:19.826Z,98322.47
2022-10-23T09:22:48.861Z,98320.44
2022-10-23T09:25:29.049Z,98320.44
2022-10-23T09:28:01.499Z,98312.38
2022-10-23T09:30:39.995Z,98307.97
2022-10-23T09:33:22.039Z,98304.91
2022-10-23T09:36:01.330Z,98298.81
2022-10-23T09:38:32.936Z,98288.50
2022-10-23T09:41:02.976Z,98294.31
2022-10-23T09:43:30.296Z,98290.50
2022-10-23T09:46:06.098Z,98287.97
2022-10-23T09:48:34.465Z,98278.63
2022-10-23T09:51:15.523Z,98270.34
2022-10-23T09:53:53.216Z,98274.19
2022-10-23T09:56:29.474Z,98280.53
2022-10-23T09:59:00.831Z,98278.66
2022-10-23T10:01:33.029Z,98284.28
2022-10-23T10:04:38.284Z,98292.97
2022-10-23T10:07:17.501Z,98288.66
2022-10-23T10:09:44.209Z,98273.91
2022-10-23T10:12:32.664Z,98276.25
2022-10-23T10:15:43.746Z,98276.94
2022-10-23T10:18:39.712Z,98283.28
2022-10-23T10:21:28.349Z,98284.78
2022-10-23T10:24:12.479Z,98286.72
2022-10-23T10:26:52.184Z,98281.88
2022-10-23T10:29:32.990Z,98285.22
2022-10-23T10:32:17.558Z,98277.13
2022-10-23T10:34:53.193Z,98274.47
2022-10-23T10:37:26.430Z,98275.69
2022-10-23T10:40:07.686Z,98278.31
2022-10-23T10:42:44.353Z,98283.09
2022-10-23T10:45:32.739Z,98268.84
2022-10-23T10:48:15.031Z,98268.78
2022-10-23T10:51:28.218Z,98265.78
2022-10-23T10:54:33.843Z,98269.50
2022-10-23T10:57:09.699Z,98273.25
2022-10-23T10:59:42.432Z,98271.63
2022-10-23T11:02:48.242Z,98262.50
2022-10-23T11:05:17.731Z,98257.28
2022-10-23T11:07:54.882Z,98257.28
2022-10-23T11:10:22.034Z,98252.03
2022-10-23T11:12:49.645Z,98244.91
2022-10-23T11:15:21.122Z,98239.38
2022-10-23T11:17:53.537Z,98235.31
2022-10-23T11:20:36.669Z,98244.19
2022-10-23T11:23:24.402Z,98239.44
2022-10-23T11:26:01.771Z,98232.16
2022-10-23T11:29:00.022Z,98223.84
2022-10-23T11:31:50.103Z,98235.31
2022-10-23T11:34:16.530Z,98227.25
2022-10-23T11:36:55.838Z,98231.78
2022-10-23T11:39:27.234Z,98224.00
2022-10-23T11:42:00.082Z,98213.47
2022-10-23T11:44:28.345Z,98214.09
2022-10-23T11:47:06.566Z,98204.19
2022-10-23T11:49:33.024Z,98202.22
2022-10-23T11:52:05.570Z,98193.25
2022-10-23T11:54:32.368Z,98192.16
2022-10-23T11:57:10.367Z,98175.69
2022-10-23T11:59:55.169Z,98182.25
2022-10-23T12:02:41.660Z,98162.25
2022-10-23T12:05:42.050Z,98167.41
2022-10-23T12:08:21.923Z,98165.28
2022-10-23T12:10:52.774Z,98176.78
2022-10-23T12:13:34.346Z,98168.69
2022-10-23T12:16:01.276Z,98168.66
2022-10-23T12:18:28.438Z,98159.66
2022-10-23T12:20:58.141Z,98146.25
2022-10-23T12:23:43.202Z,98147.63
2022-10-23T12:26:50.568Z,98142.06
2022-10-23T12:29:29.240Z,98133.69
2022-10-23T12:32:18.442Z,98131.25
2022-10-23T12:35:26.646Z,98128.38
2022-10-23T12:38:13.132Z,98126.44
2022-10-23T12:40:39.680Z,98130.66
2022-10-23T12:43:23.252Z,98122.75
2022-10-23T12:45:50.605Z,98113.44
2022-10-23T12:48:22.201Z,98108.53
2022-10-23T12:50:54.792Z,98107.47
2022-10-23T12:53:23.308Z,98101.03
2022-10-23T12:58:31.907Z,98103.44
2022-10-23T13:01:04.590Z,98105.09
2022-10-23T13:03:32.643Z,98102.38
2022-10-23T13:06:02.533Z,98096.34
2022-10-23T13:08:40.658Z,98085.94
2022-10-23T13:11:36.496Z,98093.88
2022-10-23T13:14:29.710Z,98085.69
2022-10-23T13:17:04.560Z,98087.03
2022-10-23T13:19:31.697Z,98092.44
2022-10-23T13:21:59.247Z,98085.38
2022-10-23T13:24:28.559Z,98087.03
2022-10-23T13:26:56.889Z,98075.53
2022-10-23T13:29:28.813Z,98077.47
2022-10-23T13:31:55.761Z,98067.66
2022-10-23T13:34:28.595Z,98073.94
2022-10-23T13:37:01.359Z,98071.19
2022-10-23T13:39:31.061Z,98082.38
2022-10-23T13:42:11.381Z,98070.63
2022-10-23T13:44:38.142Z,98068.72
2022-10-23T13:47:05.300Z,98066.25
2022-10-23T13:49:32.078Z,98074.38
2022-10-23T13:51:58.734Z,98071.75
2022-10-23T13:56:59.581Z,98067.34
2022-10-23T13:59:26.429Z,98069.00
2022-10-23T14:01:53.372Z,98064.78
2022-10-23T14:04:20.694Z,98060.66
2022-10-23T14:06:47.418Z,98064.56
2022-10-23T14:09:16.699Z,98057.81
2022-10-23T14:11:43.992Z,98053.09
2022-10-23T14:14:10.572Z,98062.31
2022-10-23T14:16:37.524Z,98069.53
2022-10-23T14:19:04.317Z,98078.56
2022-10-23T14:21:30.827Z,98063.69
2022-10-23T14:23:57.374Z,98063.31
2022-10-23T14:26:27.432Z,98075.38
2022-10-23T14:28:55.255Z,98060.25
2022-10-23T14:31:22.304Z,98071.03
2022-10-23T14:33:58.535Z,98074.38
2022-10-23T14:36:28.324Z,98069.03
2022-10-23T14:39:01.414Z,98072.25
2022-10-23T14:41:27.872Z,98069.81
2022-10-23T14:43:54.958Z,98071.44
2022-10-23T14:46:23.959Z,98080.97
2022-10-23T14:48:55.798Z,98073.56
2022-10-23T14:51:27.659Z,98049.97
2022-10-23T14:54:01.648Z,98080.19
2022-10-23T14:56:33.496Z,98057.34
2022-10-23T14:59:03.646Z,98013.09
2022-10-23T15:01:32.290Z,98043.22
2022-10-23T15:03:59.026Z,98043.25
2022-10-23T15:06:25.935Z,98038.34
2022-10-23T15:08:56.300Z,98030.63
2022-10-23T15:11:24.837Z,98042.22
2022-10-23T15:13:51.515Z,98049.63
2022-10-23T15:16:18.325Z,98052.53
2022-10-23T15:18:44.773Z,98048.53
2022-10-23T15:21:11.217Z,98047.25
2022-10-23T15:23:41.043Z,98040.09
2022-10-23T15:26:11.548Z,98033.31
2022-10-23T15:28:38.786Z,98019.38
2022-10-23T15:31:05.833Z,98009.25
2022-10-23T15:33:32.342Z,98008.06
2022-10-23T15:35:58.797Z,98007.97
2022-10-23T15:38:26.036Z,98020.16
2022-10-23T15:40:58.301Z,98015.56
2022-10-23T15:43:24.798Z,98015.97
2022-10-23T15:45:51.196Z,98005.25
2022-10-23T15:48:17.664Z,98005.09
2022-10-23T15:50:44.037Z,98013.44
2022-10-23T15:53:10.577Z,98009.91
2022-10-23T15:55:37.076Z,97996.91
2022-10-23T15:58:05.411Z,98002.03
2022-10-23T16:00:35.874Z,97997.91
2022-10-23T16:03:02.671Z,97986.72
2022-10-23T16:05:29.233Z,97985.38
2022-10-23T16:07:55.811Z,97989.88
2022-10-23T16:10:25.558Z,97999.16
2022-10-23T16:12:51.967Z,98014.31
2022-10-23T16:15:18.396Z,98021.75
2022-10-23T16:17:45.221Z,98009.88
2022-10-23T16:20:11.997Z,98030.56
2022-10-23T16:22:41.365Z,98032.13
2022-10-23T16:25:10.973Z,98025.03
2022-10-23T16:27:37.365Z,98054.75
2022-10-23T16:30:06.166Z,98050.13
2022-10-23T16:32:32.625Z,98033.25
2022-10-23T16:34:59.124Z,98057.56
2022-10-23T16:37:25.614Z,98048.59
2022-10-23T16:40:01.889Z,98065.38
2022-10-23T16:42:54.756Z,98053.25
2022-10-23T16:45:41.570Z,98050.16
2022-10-23T16:48:08.044Z,98065.78
2022-10-23T16:50:34.510Z,98030.09
2022-10-23T16:53:00.965Z,98061.69
2022-10-23T16:55:27.366Z,98060.94
2022-10-23T16:57:53.849Z,98089.75
2022-10-23T17:00:22.534Z,98057.34
2022-10-23T17:02:49.100Z,98069.75
2022-10-23T17:05:15.636Z,98070.53
2022-10-23T17:07:42.338Z,98073.34
2022-10-23T17:10:09.372Z,98080.78
2022-10-23T17:12:36.005Z,98072.75
2022-10-23T17:15:03.237Z,98082.81
2022-10-23T17:17:30.218Z,98097.63
2022-10-23T17:19:56.733Z,98072.03
2022-10-23T17:22:23.189Z,98077.09
2022-10-23T17:24:53.005Z,98095.13
2022-10-23T17:27:20.774Z,98118.47
2022-10-23T17:29:47.358Z,98121.75
2022-10-23T17:32:13.951Z,98136.00
2022-10-23T17:34:40.541Z,98140.25
2022-10-23T17:37:07.917Z,98140.75
2022-10-23T17:39:34.492Z,98134.03
2022-10-23T17:42:01.231Z,98146.56
2022-10-23T17:44:29.120Z,98128.88
2022-10-23T17:46:55.756Z,98149.81
2022-10-23T17:49:23.626Z,98136.16
2022-10-23T17:51:55.685Z,98159.59
2022-10-23T17:54:24.118Z,98154.97
2022-10-23T17:56:50.703Z,98156.22
2022-10-23T17:59:19.582Z,98170.88
2022-10-23T18:01:48.069Z,98162.75
2022-10-23T18:04:16.261Z,98186.31
2022-10-23T18:06:48.086Z,98186.34
2022-10-23T18:09:15.542Z,98183.91
2022-10-23T18:11:45.602Z,98190.03
2022-10-23T18:14:17.019Z,98195.25
2022-10-23T18:16:45.896Z,98196.09
2022-10-23T18:19:13.512Z,98201.78
2022-10-23T18:21:40.269Z,98200.06
2022-10-23T18:24:07.868Z,98190.41
2022-10-23T18:26:35.142Z,98200.75
2022-10-23T18:29:04.143Z,98208.63
2022-10-23T18:31:30.794Z,98200.28
2022-10-23T18:34:04.143Z,98190.91
2022-10-23T18:36:33.684Z,98187.91
2022-10-23T18:39:00.309Z,98197.56
2022-10-23T18:41:28.039Z,98209.28
2022-10-23T18:43:55.001Z,98195.47
2022-10-23T18:46:22.003Z,98196.84
2022-10-23T18:48:50.761Z,98182.03
2022-10-23T18:51:23.795Z,98181.22
2022-10-23T18:53:51.451Z,98185.28
2022-10-23T18:56:24.532Z,98178.53
2022-10-23T18:58:53.141Z,98187.06
2022-10-23T19:01:20.913Z,98175.59
2022-10-23T19:03:47.970Z,98178.34
2022-10-23T19:06:15.297Z,98175.59
2022-10-23T19:08:43.663Z,98184.91
2022-10-23T19:11:12.293Z,98174.25
2022-10-23T19:13:40.565Z,98173.16
2022-10-23T19:16:12.653Z,98170.19
2022-10-23T19:18:40.941Z,98182.81
2022-10-23T19:21:07.690Z,98179.81
2022-10-23T19:23:36.463Z,98171.31
2022-10-23T19:26:12.026Z,98171.84
2022-10-23T19:28:42.346Z,98179.72
2022-10-23T19:31:09.908Z,98174.84
2022-10-23T19:33:38.802Z,98177.81
2022-10-23T19:36:08.028Z,98179.72
2022-10-23T19:38:36.703Z,98183.81
2022-10-23T19:41:03.871Z,98171.22
2022-10-23T19:43:30.434Z,98176.41
2022-10-23T19:46:00.390Z,98179.41
2022-10-23T19:48:27.112Z,98177.22
2022-10-23T19:50:53.924Z,98189.28
2022-10-23T19:53:20.476Z,98192.81
2022-10-23T19:55:47.205Z,98188.97
2022-10-23T19:58:14.712Z,98180.50
2022-10-23T20:00:41.397Z,98191.44
2022-10-23T20:03:07.833Z,98191.41
2022-10-23T20:05:34.321Z,98191.22
2022-10-23T20:08:01.576Z,98203.50
2022-10-23T20:10:28.301Z,98195.03
2022-10-23T20:13:02.356Z,98185.28
2022-10-23T20:15:41.201Z,98195.88
2022-10-23T20:18:34.126Z,98192.94
2022-10-23T20:21:05.545Z,98210.69
2022-10-23T20:23:31.989Z,98191.00
2022-10-23T20:26:09.668Z,98226.88
2022-10-23T20:28:37.169Z,98214.31
2022-10-23T20:31:08.963Z,98211.56
2022-10-23T20:33:37.186Z,98207.97
2022-10-23T20:36:05.375Z,98221.66
2022-10-23T20:38:31.880Z,98208.28
2022-10-23T20:41:00.408Z,98203.31
2022-10-23T20:43:27.397Z,98226.25
2022-10-23T20:45:53.984Z,98232.56
2022-10-23T20:48:20.474Z,98244.63
2022-10-23T20:50:47.011Z,98244.06
2022-10-23T20:53:13.502Z,98242.44
2022-10-23T20:55:42.971Z,98247.81
2022-10-23T20:58:09.653Z,98250.31
2022-10-23T21:00:36.104Z,98249.75
2022-10-23T21:03:04.015Z,98252.69
2022-10-23T21:05:30.550Z,98252.69
2022-10-23T21:07:56.961Z,98259.28
2022-10-23T21:10:23.340Z,98250.88
2022-10-23T21:12:49.863Z,98234.41
2022-10-23T21:15:16.402Z,98223.72
2022-10-23T21:17:42.885Z,98225.41
2022-10-23T21:20:09.826Z,98224.50
2022-10-23T21:22:36.281Z,98240.34
2022-10-23T21:25:02.796Z,98231.88
2022-10-23T21:27:29.246Z,98232.84
2022-10-23T21:29:55.697Z,98226.34
2022-10-23T21:32:22.237Z,98227.50
2022-10-23T21:34:48.843Z,98215.31
2022-10-23T21:37:15.566Z,98218.31
2022-10-23T21:39:43.895Z,98225.13
2022-10-23T21:42:13.909Z,98210.53
2022-10-23T21:44:40.472Z,98225.69
2022-10-23T21:47:07.061Z,98224.28
2022-10-23T21:49:33.593Z,98222.13
2022-10-23T21:52:00.047Z,98224.78
2022-10-23T21:54:26.604Z,98221.56
2022-10-23T21:56:53.893Z,98220.28
2022-10-23T21:59:24.168Z,98226.16
2022-10-23T22:01:51.630Z,98226.16
2022-10-23T22:04:19.986Z,98235.06
2022-10-23T22:06:48.757Z,98240.00
2022-10-23T22:09:19.103Z,98233.22
2022-10-23T22:11:46.077Z,98233.63
2022-10-23T22:14:12.469Z,98221.34
2022-10-23T22:16:38.898Z,98217.66
2022-10-23T22:19:05.342Z,98225.16
2022-10-23T22:21:32.111Z,98234.66
2022-10-23T22:24:00.019Z,98229.41
2022-10-23T22:26:28.031Z,98222.56
2022-10-23T22:28:57.359Z,98223.84
2022-10-23T22:31:26.221Z,98237.13
2022-10-23T22:33:53.784Z,98223.00
2022-10-23T22:36:20.937Z,98227.44
2022-10-23T22:38:53.224Z,98230.72
2022-10-23T22:41:20.281Z,98217.91
2022-10-23T22:43:46.730Z,98221.16
2022-10-23T22:46:18.619Z,98215.09
2022-10-23T22:48:45.696Z,98216.19
2022-10-23T22:51:14.333Z,98222.44
2022-10-23T22:53:41.147Z,98213.38
2022-10-23T22:56:09.373Z,98224.53
2022-10-23T22:58:36.262Z,98237.31
2022-10-23T23:01:07.080Z,98224.97
2022-10-23T23:03:36.214Z,98227.25
2022-10-23T23:06:04.163Z,98225.69
2022-10-23T23:08:30.783Z,98222.38
2022-10-23T23:10:58.020Z,98230.31
2022-10-23T23:13:25.861Z,98238.44
2022-10-23T23:15:52.819Z,98241.50
2022-10-23T23:18:20.001Z,98238.00
2022-10-23T23:20:46.658Z,98245.13
2022-10-23T23:23:14.098Z,98246.28
2022-10-23T23:25:42.864Z,98245.31
2022-10-23T23:28:12.029Z,98244.72
2022-10-23T23:30:40.016Z,98242.97
2022-10-23T23:33:07.488Z,98235.41
2022-10-23T23:35:33.984Z,98235.50
2022-10-23T23:38:00.423Z,98222.94
2022-10-23T23:40:26.816Z,98221.50
2022-10-23T23:42:53.266Z,98239.84
2022-10-23T23:45:19.680Z,98230.66
2022-10-23T23:47:46.424Z,98227.88
2022-10-23T23:50:13.089Z,98238.84
2022-10-23T23:52:39.548Z,98240.81
2022-10-23T23:55:06.236Z,98241.47
2022-10-23T23:57:32.637Z,98247.50
2022-10-23T23:59:59.483Z,98249.69
